Time;durP1;ratioP1;P1;durP2;ratioP2;P2;SDS_P1;SDS_P2;PMS_P1;PMS_P2;Temp;Humidity;BMP_temperature;BMP_pressure;BME280_temperature;BME280_humidity;BME280_pressure;Samples;Min_cycle;Max_cycle;Signal;HPM_P1;HPM_P2
2021/04/26 00:01:31;;;;;;;7.07;2.92;;;;;;;;;;5126830;27;20042;-71
2021/04/26 00:03:58;;;;;;;12.02;3.95;;;;;;;;;;5141128;27;20043;-71
2021/04/26 00:06:24;;;;;;;8.63;3.35;;;;;;;;;;5138287;27;20059;-71
2021/04/26 00:08:50;;;;;;;5.95;2.75;;;;;;;;;;5123960;27;20539;-71
2021/04/26 00:11:17;;;;;;;9.52;2.95;;;;;;;;;;5146228;27;20446;-71
2021/04/26 00:13:43;;;;;;;11.60;4.18;;;;;;;;;;5145014;27;20140;-71
2021/04/26 00:16:09;;;;;;;7.88;3.90;;;;;;;;;;5147371;27;20042;-71
2021/04/26 00:18:35;;;;;;;6.70;3.63;;;;;;;;;;5140267;27;20565;-70
2021/04/26 00:21:01;;;;;;;14.02;3.80;;;;;;;;;;5145075;27;20401;-71
2021/04/26 00:23:28;;;;;;;6.57;3.55;;;;;;;;;;5135699;27;20039;-71
2021/04/26 00:25:54;;;;;;;11.25;4.30;;;;;;;;;;5146108;27;20732;-70
2021/04/26 00:28:20;;;;;;;9.57;4.13;;;;;;;;;;5144374;27;20069;-70
2021/04/26 00:30:47;;;;;;;13.20;3.95;;;;;;;;;;5135303;27;20103;-71
2021/04/26 00:33:13;;;;;;;10.90;3.80;;;;;;;;;;5142989;27;20059;-71
2021/04/26 00:35:39;;;;;;;10.68;4.10;;;;;;;;;;5139526;27;20039;-70
2021/04/26 00:38:05;;;;;;;17.60;4.32;;;;;;;;;;5119091;27;20035;-70
2021/04/26 00:40:32;;;;;;;14.80;5.35;;;;;;;;;;5140368;27;20041;-71
2021/04/26 00:42:58;;;;;;;14.35;4.38;;;;;;;;;;5145399;27;20034;-70
2021/04/26 00:45:25;;;;;;;13.38;4.97;;;;;;;;;;5142958;27;20126;-71
2021/04/26 00:47:52;;;;;;;11.60;4.72;;;;;;;;;;5141753;27;20047;-70
2021/04/26 00:50:20;;;;;;;12.88;4.50;;;;;;;;;;5144501;27;20046;-70
2021/04/26 00:52:47;;;;;;;12.35;5.05;;;;;;;;;;5146360;27;20063;-71
2021/04/26 00:55:14;;;;;;;10.40;4.35;;;;;;;;;;5142524;27;20069;-71
2021/04/26 00:57:40;;;;;;;11.88;3.95;;;;;;;;;;5142862;27;20041;-71
2021/04/26 01:00:07;;;;;;;9.32;3.78;;;;;;;;;;5148986;27;20046;-71
2021/04/26 01:02:34;;;;;;;7.97;4.00;;;;;;;;;;5144327;27;20528;-71
2021/04/26 01:05:00;;;;;;;7.43;3.55;;;;;;;;;;5138731;27;20064;-71
2021/04/26 01:07:28;;;;;;;9.90;3.58;;;;;;;;;;5139302;27;20476;-71
2021/04/26 01:09:54;;;;;;;11.57;3.75;;;;;;;;;;5124571;27;20039;-70
2021/04/26 01:12:20;;;;;;;10.52;3.55;;;;;;;;;;5135163;27;20183;-71
2021/04/26 01:15:05;;;;;;;8.63;3.33;;;;;;;;;;5144081;27;20486;-71
2021/04/26 01:17:34;;;;;;;13.70;3.30;;;;;;;;;;5143315;27;20338;-71
2021/04/26 01:20:00;;;;;;;7.05;2.70;;;;;;;;;;5143587;27;20052;-71
2021/04/26 01:22:32;;;;;;;8.60;3.40;;;;;;;;;;5146783;27;20038;-71
2021/04/26 01:24:59;;;;;;;7.13;3.50;;;;;;;;;;5128309;27;20076;-71
2021/04/26 01:27:36;;;;;;;9.88;3.30;;;;;;;;;;5142500;27;20039;-71
2021/04/26 01:30:07;;;;;;;12.40;2.97;;;;;;;;;;5148498;27;20087;-70
2021/04/26 01:32:37;;;;;;;9.65;3.55;;;;;;;;;;5132168;27;20042;-70
2021/04/26 01:35:05;;;;;;;8.07;3.15;;;;;;;;;;5145364;27;20062;-71
2021/04/26 01:37:33;;;;;;;11.50;3.22;;;;;;;;;;5141247;27;20046;-70
2021/04/26 01:40:00;;;;;;;9.98;3.17;;;;;;;;;;5139055;27;20041;-70
2021/04/26 01:42:26;;;;;;;4.88;2.60;;;;;;;;;;5145743;27;20061;-71
2021/04/26 01:44:53;;;;;;;9.18;3.25;;;;;;;;;;5143368;27;20431;-71
2021/04/26 01:47:19;;;;;;;8.13;3.00;;;;;;;;;;5144336;27;20464;-71
2021/04/26 01:49:47;;;;;;;5.00;3.03;;;;;;;;;;5144980;27;20508;-72
2021/04/26 01:52:13;;;;;;;6.95;3.03;;;;;;;;;;5140554;27;20046;-72
2021/04/26 01:54:40;;;;;;;10.52;3.40;;;;;;;;;;5140423;27;20457;-71
2021/04/26 01:57:07;;;;;;;12.93;3.70;;;;;;;;;;5148208;27;20431;-71
2021/04/26 01:59:34;;;;;;;5.75;3.70;;;;;;;;;;5146647;27;20118;-71
2021/04/26 02:02:00;;;;;;;9.02;4.30;;;;;;;;;;5144227;27;20035;-71
2021/04/26 02:04:28;;;;;;;8.68;4.32;;;;;;;;;;5149036;27;20038;-72
2021/04/26 02:06:54;;;;;;;9.40;4.63;;;;;;;;;;5148261;27;20466;-72
2021/04/26 02:09:20;;;;;;;8.38;3.65;;;;;;;;;;5131514;27;20038;-70
2021/04/26 02:11:47;;;;;;;7.57;3.03;;;;;;;;;;5141935;27;20047;-71
2021/04/26 02:14:13;;;;;;;4.50;2.63;;;;;;;;;;5144058;27;20091;-71
2021/04/26 02:16:43;;;;;;;7.63;2.78;;;;;;;;;;5142044;27;20027;-71
2021/04/26 02:19:10;;;;;;;5.75;2.63;;;;;;;;;;5136650;27;20070;-71
2021/04/26 02:21:36;;;;;;;10.55;4.88;;;;;;;;;;5144701;27;20047;-71
2021/04/26 02:24:03;;;;;;;8.73;2.85;;;;;;;;;;5142769;27;20030;-72
2021/04/26 02:26:30;;;;;;;7.72;3.20;;;;;;;;;;5149129;27;20408;-71
2021/04/26 02:28:56;;;;;;;5.78;2.70;;;;;;;;;;5124517;27;20488;-71
2021/04/26 02:31:24;;;;;;;6.07;2.75;;;;;;;;;;5145098;27;20045;-70
2021/04/26 02:33:54;;;;;;;9.35;2.78;;;;;;;;;;5142751;27;20557;-70
2021/04/26 02:36:32;;;;;;;6.90;2.38;;;;;;;;;;5149818;27;20381;-72
2021/04/26 02:39:01;;;;;;;13.10;4.07;;;;;;;;;;5144920;27;20042;-71
2021/04/26 02:41:29;;;;;;;7.40;2.67;;;;;;;;;;5149294;27;20118;-71
2021/04/26 02:44:03;;;;;;;7.18;2.38;;;;;;;;;;5145804;27;20507;-71
2021/04/26 02:46:32;;;;;;;6.15;3.25;;;;;;;;;;5121132;27;20053;-72
2021/04/26 02:48:58;;;;;;;6.13;2.63;;;;;;;;;;5137918;27;20459;-71
2021/04/26 02:51:28;;;;;;;5.68;2.30;;;;;;;;;;5144060;27;20138;-71
2021/04/26 02:53:54;;;;;;;8.95;2.60;;;;;;;;;;5147634;27;20038;-72
2021/04/26 02:56:21;;;;;;;5.03;2.20;;;;;;;;;;5146947;27;20503;-71
2021/04/26 02:58:50;;;;;;;8.38;2.60;;;;;;;;;;5135886;27;20046;-71
2021/04/26 03:01:17;;;;;;;8.07;2.70;;;;;;;;;;5142571;27;20047;-71
2021/04/26 03:03:44;;;;;;;6.93;2.38;;;;;;;;;;5145624;27;20113;-71
2021/04/26 03:06:10;;;;;;;6.88;2.90;;;;;;;;;;5141232;27;20474;-71
2021/04/26 03:08:36;;;;;;;8.88;3.30;;;;;;;;;;5147156;27;20042;-71
2021/04/26 03:11:05;;;;;;;5.57;2.80;;;;;;;;;;5147787;27;20035;-71
2021/04/26 03:13:31;;;;;;;6.70;2.60;;;;;;;;;;5124955;27;20257;-71
2021/04/26 03:15:58;;;;;;;10.25;3.47;;;;;;;;;;5143688;27;20065;-72
2021/04/26 03:18:24;;;;;;;5.63;2.88;;;;;;;;;;5143996;27;20094;-71
2021/04/26 03:20:51;;;;;;;5.68;2.40;;;;;;;;;;5142230;27;20482;-70
2021/04/26 03:23:20;;;;;;;9.82;2.60;;;;;;;;;;5146883;27;20061;-70
2021/04/26 03:25:46;;;;;;;7.57;2.80;;;;;;;;;;5147620;27;20115;-71
2021/04/26 03:28:14;;;;;;;7.53;2.83;;;;;;;;;;5140174;27;20366;-71
2021/04/26 03:30:40;;;;;;;7.80;2.83;;;;;;;;;;5137519;27;20047;-71
2021/04/26 03:33:07;;;;;;;5.45;2.20;;;;;;;;;;5147031;27;20045;-69
2021/04/26 03:35:33;;;;;;;4.85;2.40;;;;;;;;;;5142836;27;20051;-71
2021/04/26 03:38:00;;;;;;;4.93;2.22;;;;;;;;;;5123984;27;20039;-71
2021/04/26 03:40:27;;;;;;;5.70;2.55;;;;;;;;;;5128754;27;21655;-70
2021/04/26 03:42:57;;;;;;;5.53;2.50;;;;;;;;;;5139276;27;20031;-71
2021/04/26 03:45:24;;;;;;;8.32;2.30;;;;;;;;;;5143762;27;20111;-71
2021/04/26 03:47:50;;;;;;;7.50;2.45;;;;;;;;;;5122337;27;20407;-70
2021/04/26 03:50:19;;;;;;;9.98;2.67;;;;;;;;;;5123911;27;20053;-70
2021/04/26 03:52:45;;;;;;;3.92;2.15;;;;;;;;;;5141919;27;20126;-70
2021/04/26 03:55:13;;;;;;;4.72;2.10;;;;;;;;;;5140965;27;20043;-72
2021/04/26 03:57:39;;;;;;;5.95;2.63;;;;;;;;;;5127063;27;20049;-72
2021/04/26 04:00:06;;;;;;;5.10;2.80;;;;;;;;;;5138886;27;20047;-70
2021/04/26 04:02:32;;;;;;;10.25;3.00;;;;;;;;;;5139658;27;20049;-71
2021/04/26 04:04:59;;;;;;;6.75;2.92;;;;;;;;;;5143895;27;20171;-71
2021/04/26 04:07:26;;;;;;;7.10;2.90;;;;;;;;;;5139144;27;20051;-71
2021/04/26 04:09:52;;;;;;;9.15;2.83;;;;;;;;;;5141461;27;20122;-71
2021/04/26 04:12:18;;;;;;;8.05;2.75;;;;;;;;;;5144424;27;20537;-71
2021/04/26 04:14:44;;;;;;;12.88;2.92;;;;;;;;;;5150149;27;20055;-71
2021/04/26 04:17:10;;;;;;;5.68;2.40;;;;;;;;;;5150744;27;20039;-71
2021/04/26 04:19:37;;;;;;;7.38;2.80;;;;;;;;;;5145408;27;20586;-71
2021/04/26 04:22:03;;;;;;;6.32;2.25;;;;;;;;;;5116357;27;20371;-71
2021/04/26 04:24:29;;;;;;;5.35;2.50;;;;;;;;;;5124701;27;20115;-70
2021/04/26 04:26:55;;;;;;;8.52;3.10;;;;;;;;;;5142595;27;20053;-71
2021/04/26 04:29:22;;;;;;;7.47;2.83;;;;;;;;;;5141771;27;20035;-72
2021/04/26 04:31:48;;;;;;;8.70;2.85;;;;;;;;;;5143729;27;20545;-70
2021/04/26 04:34:15;;;;;;;10.98;2.95;;;;;;;;;;5144393;27;20075;-71
2021/04/26 04:36:41;;;;;;;7.72;2.80;;;;;;;;;;5151747;27;20057;-70
2021/04/26 04:39:07;;;;;;;8.48;2.78;;;;;;;;;;5143363;27;21499;-70
2021/04/26 04:41:33;;;;;;;11.27;3.30;;;;;;;;;;5141650;27;20046;-70
2021/04/26 04:44:02;;;;;;;9.27;2.75;;;;;;;;;;5136608;27;20037;-72
2021/04/26 04:46:29;;;;;;;22.83;3.85;;;;;;;;;;5146628;27;20031;-71
2021/04/26 04:48:55;;;;;;;8.52;2.85;;;;;;;;;;5140205;27;20042;-72
2021/04/26 04:51:21;;;;;;;7.50;2.90;;;;;;;;;;5127870;27;20654;-71
2021/04/26 04:53:48;;;;;;;4.85;2.63;;;;;;;;;;5150516;27;20439;-71
2021/04/26 04:56:14;;;;;;;10.77;4.05;;;;;;;;;;5143348;27;20466;-70
2021/04/26 04:58:40;;;;;;;10.23;4.50;;;;;;;;;;5137912;27;20039;-71
2021/04/26 05:01:06;;;;;;;10.10;3.85;;;;;;;;;;5145340;27;20126;-71
2021/04/26 05:03:33;;;;;;;12.05;4.25;;;;;;;;;;5129788;27;20039;-70
2021/04/26 05:06:00;;;;;;;8.10;4.13;;;;;;;;;;5147675;27;20053;-72
2021/04/26 05:08:26;;;;;;;9.98;3.67;;;;;;;;;;5136195;27;20534;-71
2021/04/26 05:10:52;;;;;;;8.73;4.15;;;;;;;;;;5138932;27;20046;-71
2021/04/26 05:13:18;;;;;;;8.95;3.20;;;;;;;;;;5137066;27;20071;-70
2021/04/26 05:15:44;;;;;;;6.55;2.92;;;;;;;;;;5147929;27;20038;-71
2021/04/26 05:18:11;;;;;;;8.43;3.38;;;;;;;;;;5137095;27;20161;-72
2021/04/26 05:20:40;;;;;;;7.40;3.13;;;;;;;;;;5143084;27;20042;-69
2021/04/26 05:23:06;;;;;;;5.72;2.95;;;;;;;;;;5149305;27;20030;-70
2021/04/26 05:25:32;;;;;;;7.40;2.67;;;;;;;;;;5147232;27;20043;-71
2021/04/26 05:27:58;;;;;;;9.75;2.80;;;;;;;;;;5148778;27;20038;-71
2021/04/26 05:30:25;;;;;;;7.00;2.53;;;;;;;;;;5141022;27;20625;-71
2021/04/26 05:32:51;;;;;;;7.90;2.50;;;;;;;;;;5147479;27;20058;-71
2021/04/26 05:35:18;;;;;;;7.55;2.55;;;;;;;;;;5155834;27;20103;-71
2021/04/26 05:37:45;;;;;;;5.93;2.10;;;;;;;;;;5121022;27;20062;-73
2021/04/26 05:40:12;;;;;;;6.38;2.25;;;;;;;;;;5153752;27;20038;-71
2021/04/26 05:42:38;;;;;;;;;;;;;;;;;;5152605;27;20126;-72
2021/04/26 05:45:04;;;;;;;;;;;;;;;;;;5153234;27;19958;-71
2021/04/26 05:47:30;;;;;;;;;;;;;;;;;;5137128;27;20609;-72
2021/04/26 05:49:56;;;;;;;;;;;;;;;;;;5154471;27;20359;-72
2021/04/26 05:52:23;;;;;;;9.35;2.47;;;;;;;;;;5145788;27;19926;-72
2021/04/26 05:54:49;;;;;;;9.93;1.70;;;;;;;;;;5136391;27;20438;-72
2021/04/26 05:57:15;;;;;;;6.93;2.03;;;;;;;;;;5137577;27;20042;-71
2021/04/26 05:59:41;;;;;;;6.80;1.80;;;;;;;;;;5137220;27;20060;-72
2021/04/26 06:02:08;;;;;;;7.32;1.88;;;;;;;;;;5149497;27;20041;-72
2021/04/26 06:04:34;;;;;;;5.13;1.60;;;;;;;;;;5154610;27;20244;-72
2021/04/26 06:07:00;;;;;;;16.85;2.30;;;;;;;;;;5137942;27;20039;-72
2021/04/26 06:09:26;;;;;;;6.80;1.50;;;;;;;;;;5153000;27;20053;-72
2021/04/26 06:11:52;;;;;;;5.05;1.45;;;;;;;;;;5110637;27;20122;-72
2021/04/26 06:14:19;;;;;;;4.93;1.48;;;;;;;;;;5130074;27;20043;-72
2021/04/26 06:16:45;;;;;;;9.20;1.60;;;;;;;;;;5134980;27;20045;-72
2021/04/26 06:19:11;;;;;;;6.97;1.75;;;;;;;;;;5151881;27;20035;-72
2021/04/26 06:21:37;;;;;;;7.60;1.67;;;;;;;;;;5133621;27;20129;-72
2021/04/26 06:24:03;;;;;;;7.28;1.88;;;;;;;;;;5124298;27;20430;-71
2021/04/26 06:26:30;;;;;;;6.72;1.55;;;;;;;;;;5108156;27;20123;-72
2021/04/26 06:28:56;;;;;;;4.50;1.65;;;;;;;;;;5145571;27;20366;-71
2021/04/26 06:31:22;;;;;;;6.32;1.70;;;;;;;;;;5147243;27;20043;-71
2021/04/26 06:33:49;;;;;;;8.43;2.05;;;;;;;;;;5129461;27;20499;-72
2021/04/26 06:36:15;;;;;;;10.95;2.20;;;;;;;;;;5135043;27;20042;-72
2021/04/26 06:38:41;;;;;;;8.75;2.05;;;;;;;;;;5125725;27;20046;-73
2021/04/26 06:41:08;;;;;;;8.68;2.00;;;;;;;;;;5144152;27;20826;-73
2021/04/26 06:43:34;;;;;;;6.53;1.70;;;;;;;;;;5130240;27;20078;-72
2021/04/26 06:46:00;;;;;;;9.90;1.65;;;;;;;;;;5144061;27;20043;-72
2021/04/26 06:48:26;;;;;;;7.28;1.65;;;;;;;;;;5142974;27;20117;-73
2021/04/26 06:50:54;;;;;;;6.70;2.33;;;;;;;;;;5146491;27;20035;-73
2021/04/26 06:53:20;;;;;;;12.23;2.70;;;;;;;;;;5145372;27;20062;-78
2021/04/26 06:55:47;;;;;;;12.18;2.03;;;;;;;;;;5128558;27;20088;-72
2021/04/26 06:58:13;;;;;;;6.60;1.70;;;;;;;;;;5146162;27;20103;-73
2021/04/26 07:00:40;;;;;;;7.95;1.65;;;;;;;;;;5143821;27;20035;-74
2021/04/26 07:03:06;;;;;;;3.92;1.50;;;;;;;;;;5149851;27;20026;-72
2021/04/26 07:05:33;;;;;;;9.43;1.98;;;;;;;;;;5144411;27;20407;-72
2021/04/26 07:07:59;;;;;;;8.43;1.70;;;;;;;;;;5141827;27;20043;-72
2021/04/26 07:10:25;;;;;;;6.40;1.52;;;;;;;;;;5127723;27;20054;-72
2021/04/26 07:12:51;;;;;;;6.20;1.70;;;;;;;;;;5146233;27;20076;-71
2021/04/26 07:15:18;;;;;;;6.15;1.70;;;;;;;;;;5126706;27;20512;-73
2021/04/26 07:17:44;;;;;;;5.82;1.70;;;;;;;;;;5144265;27;20035;-74
2021/04/26 07:20:12;;;;;;;8.23;1.70;;;;;;;;;;5147563;27;20466;-73
2021/04/26 07:22:38;;;;;;;6.60;1.85;;;;;;;;;;5147958;27;20027;-72
2021/04/26 07:25:05;;;;;;;4.90;1.50;;;;;;;;;;5131478;27;20199;-72
2021/04/26 07:27:31;;;;;;;6.90;1.80;;;;;;;;;;5111172;27;20036;-72
2021/04/26 07:29:57;;;;;;;6.15;1.70;;;;;;;;;;5150807;27;20386;-73
2021/04/26 07:32:24;;;;;;;3.17;1.58;;;;;;;;;;5115037;27;20525;-73
2021/04/26 07:34:51;;;;;;;5.93;1.67;;;;;;;;;;5119478;27;20047;-71
2021/04/26 07:37:18;;;;;;;6.20;2.22;;;;;;;;;;5131894;27;20047;-73
2021/04/26 07:39:44;;;;;;;8.13;2.00;;;;;;;;;;5125089;27;20046;-72
2021/04/26 07:42:10;;;;;;;5.82;1.77;;;;;;;;;;5119058;27;20043;-73
2021/04/26 07:44:37;;;;;;;7.78;2.25;;;;;;;;;;5126711;27;20039;-74
2021/04/26 07:47:03;;;;;;;6.53;2.60;;;;;;;;;;5129565;27;20468;-73
2021/04/26 07:49:30;;;;;;;6.50;2.38;;;;;;;;;;5128095;27;20118;-72
2021/04/26 07:51:56;;;;;;;21.25;16.25;;;;;;;;;;5113495;27;20049;-71
2021/04/26 07:54:22;;;;;;;10.85;6.45;;;;;;;;;;5121852;27;20040;-73
2021/04/26 07:56:48;;;;;;;4.47;1.30;;;;;;;;;;5129399;27;20042;-72
2021/04/26 07:59:14;;;;;;;5.03;1.50;;;;;;;;;;5121938;27;20043;-71
2021/04/26 08:01:41;;;;;;;5.10;1.50;;;;;;;;;;5125885;27;20039;-73
2021/04/26 08:04:07;;;;;;;4.50;1.13;;;;;;;;;;5121082;27;20107;-72
2021/04/26 08:06:33;;;;;;;3.60;1.27;;;;;;;;;;5130380;27;20043;-73
2021/04/26 08:08:59;;;;;;;7.63;1.55;;;;;;;;;;5127683;27;20470;-73
2021/04/26 08:11:25;;;;;;;6.38;1.23;;;;;;;;;;5130153;27;20039;-73
2021/04/26 08:13:52;;;;;;;5.63;1.75;;;;;;;;;;5124711;27;20136;-71
2021/04/26 08:16:18;;;;;;;4.97;1.10;;;;;;;;;;5125244;27;20040;-74
2021/04/26 08:18:44;;;;;;;2.70;0.75;;;;;;;;;;5128702;27;20050;-73
2021/04/26 08:21:10;;;;;;;2.72;0.80;;;;;;;;;;5121490;27;20559;-72
2021/04/26 08:23:38;;;;;;;2.92;1.13;;;;;;;;;;5132325;27;20035;-70
2021/04/26 08:26:04;;;;;;;5.70;1.02;;;;;;;;;;5116394;27;20039;-72
2021/04/26 08:28:34;;;;;;;2.22;1.00;;;;;;;;;;5124930;27;20042;-74
2021/04/26 08:31:01;;;;;;;4.20;1.20;;;;;;;;;;5128663;27;20042;-68
2021/04/26 08:33:31;;;;;;;2.42;0.90;;;;;;;;;;5129974;27;20066;-69
2021/04/26 08:35:57;;;;;;;3.65;1.10;;;;;;;;;;5145118;27;20159;-69
2021/04/26 08:38:23;;;;;;;3.90;1.13;;;;;;;;;;5120282;27;20043;-70
2021/04/26 08:40:49;;;;;;;6.47;1.17;;;;;;;;;;5148124;27;20031;-69
2021/04/26 08:43:15;;;;;;;2.75;0.88;;;;;;;;;;5132646;27;20430;-71
2021/04/26 08:45:41;;;;;;;4.50;1.05;;;;;;;;;;5149666;27;20087;-73
2021/04/26 08:48:08;;;;;;;6.07;1.42;;;;;;;;;;5149461;27;20103;-73
2021/04/26 08:50:34;;;;;;;5.13;1.77;;;;;;;;;;5125468;27;20027;-76
2021/04/26 08:53:00;;;;;;;3.22;1.20;;;;;;;;;;5147975;27;20031;-76
2021/04/26 08:55:27;;;;;;;4.97;1.27;;;;;;;;;;5138069;27;20034;-76
2021/04/26 08:57:54;;;;;;;3.33;1.13;;;;;;;;;;5148708;27;20035;-75
2021/04/26 09:00:20;;;;;;;4.10;1.08;;;;;;;;;;5151536;27;20062;-76
2021/04/26 09:02:57;;;;;;;3.20;0.75;;;;;;;;;;5155456;27;20125;-75
2021/04/26 09:05:47;;;;;;;2.15;0.85;;;;;;;;;;5156273;27;20046;-75
2021/04/26 09:08:19;;;;;;;3.55;0.90;;;;;;;;;;5157176;27;20062;-74
2021/04/26 09:10:48;;;;;;;2.97;1.08;;;;;;;;;;5136962;27;20058;-73
2021/04/26 09:13:24;;;;;;;2.35;0.80;;;;;;;;;;5150665;27;20064;-73
2021/04/26 09:15:51;;;;;;;1.45;0.60;;;;;;;;;;5133566;27;20429;-75
2021/04/26 09:18:17;;;;;;;4.97;0.98;;;;;;;;;;5137152;27;20030;-73
2021/04/26 09:20:43;;;;;;;2.92;0.98;;;;;;;;;;5155693;27;20062;-74
2021/04/26 09:23:13;;;;;;;8.07;1.25;;;;;;;;;;5156990;27;20039;-75
2021/04/26 09:25:42;;;;;;;4.63;0.93;;;;;;;;;;5155939;27;20047;-74
2021/04/26 09:28:11;;;;;;;2.92;1.23;;;;;;;;;;5156544;27;20042;-73
2021/04/26 09:30:38;;;;;;;5.13;1.20;;;;;;;;;;5154991;27;20054;-73
2021/04/26 09:33:34;;;;;;;6.78;1.50;;;;;;;;;;5155758;27;20031;-71
2021/04/26 09:36:01;;;;;;;3.28;1.20;;;;;;;;;;5138689;27;20047;-72
2021/04/26 09:38:29;;;;;;;4.63;1.42;;;;;;;;;;5156660;27;20050;-72
2021/04/26 09:41:12;;;;;;;3.03;1.00;;;;;;;;;;5156600;27;20091;-74
2021/04/26 09:43:40;;;;;;;3.50;0.97;;;;;;;;;;5154498;27;20060;-73
2021/04/26 09:46:06;;;;;;;5.47;1.20;;;;;;;;;;5137414;27;20065;-73
2021/04/26 09:48:33;;;;;;;3.72;1.10;;;;;;;;;;5146908;27;20035;-75
2021/04/26 09:51:04;;;;;;;5.15;0.98;;;;;;;;;;5147867;27;20031;-74
2021/04/26 09:53:33;;;;;;;8.02;1.13;;;;;;;;;;5131302;27;20122;-74
2021/04/26 09:56:09;;;;;;;3.70;1.00;;;;;;;;;;5130801;27;20046;-72
2021/04/26 09:58:35;;;;;;;4.20;1.30;;;;;;;;;;5146444;27;20066;-73
2021/04/26 10:01:02;;;;;;;3.70;1.20;;;;;;;;;;5129195;27;20074;-73
2021/04/26 10:03:29;;;;;;;4.78;1.27;;;;;;;;;;5144128;27;20573;-73
2021/04/26 10:05:56;;;;;;;7.22;1.45;;;;;;;;;;5145835;27;20102;-73
2021/04/26 10:08:22;;;;;;;6.93;1.50;;;;;;;;;;5144924;27;20035;-73
2021/04/26 10:10:48;;;;;;;5.45;1.20;;;;;;;;;;5151738;27;20027;-72
2021/04/26 10:13:14;;;;;;;8.05;1.70;;;;;;;;;;5133365;27;20038;-73
2021/04/26 10:15:41;;;;;;;7.22;1.73;;;;;;;;;;5116893;27;20036;-74
2021/04/26 10:18:09;;;;;;;5.30;1.50;;;;;;;;;;5146152;27;20038;-74
2021/04/26 10:20:39;;;;;;;6.03;1.80;;;;;;;;;;5145020;27;20050;-75
2021/04/26 10:23:17;;;;;;;6.07;1.65;;;;;;;;;;5144211;27;20050;-74
2021/04/26 10:25:43;;;;;;;4.35;1.30;;;;;;;;;;5147838;27;20390;-74
2021/04/26 10:28:28;;;;;;;6.93;1.88;;;;;;;;;;5145726;27;20073;-73
2021/04/26 10:30:57;;;;;;;6.75;1.35;;;;;;;;;;5150710;27;20034;-75
2021/04/26 10:33:24;;;;;;;4.20;1.30;;;;;;;;;;5146705;27;20060;-72
2021/04/26 10:35:51;;;;;;;4.97;1.75;;;;;;;;;;5143623;27;20463;-72
2021/04/26 10:38:47;;;;;;;5.18;1.60;;;;;;;;;;5122042;27;20043;-75
2021/04/26 10:41:33;;;;;;;5.28;1.50;;;;;;;;;;5130562;27;20078;-73
2021/04/26 10:43:59;;;;;;;6.57;2.00;;;;;;;;;;5122550;27;20034;-72
2021/04/26 10:46:25;;;;;;;4.35;1.40;;;;;;;;;;5123958;27;20383;-70
2021/04/26 10:49:04;;;;;;;4.53;1.20;;;;;;;;;;5144211;27;20035;-70
2021/04/26 10:51:31;;;;;;;5.95;1.52;;;;;;;;;;5148089;27;20035;-70
2021/04/26 10:53:57;;;;;;;6.05;1.60;;;;;;;;;;5124516;27;20125;-69
2021/04/26 10:56:25;;;;;;;3.97;1.33;;;;;;;;;;5145311;27;20043;-70
2021/04/26 10:58:52;;;;;;;6.18;1.80;;;;;;;;;;5145336;27;20045;-69
2021/04/26 11:01:38;;;;;;;7.07;1.98;;;;;;;;;;5147548;27;20072;-69
2021/04/26 11:04:05;;;;;;;9.48;1.80;;;;;;;;;;5144589;27;20111;-70
2021/04/26 11:06:31;;;;;;;5.10;1.50;;;;;;;;;;5106590;27;20045;-70
2021/04/26 11:09:16;;;;;;;7.43;1.65;;;;;;;;;;5150713;27;20108;-71
2021/04/26 11:11:52;;;;;;;6.22;1.80;;;;;;;;;;5143010;27;20035;-73
2021/04/26 11:14:22;;;;;;;6.25;1.42;;;;;;;;;;5127179;27;20041;-73
2021/04/26 11:17:01;;;;;;;7.15;1.70;;;;;;;;;;5146914;27;20447;-72
2021/04/26 11:19:27;;;;;;;5.88;1.58;;;;;;;;;;5142844;27;20112;-73
2021/04/26 11:21:54;;;;;;;5.63;1.77;;;;;;;;;;5141736;27;20039;-71
2021/04/26 11:24:24;;;;;;;5.93;1.75;;;;;;;;;;5144817;27;20506;-71
2021/04/26 11:27:09;;;;;;;6.72;1.75;;;;;;;;;;5144191;27;20381;-73
2021/04/26 11:29:44;;;;;;;5.15;1.45;;;;;;;;;;5127026;27;20046;-70
2021/04/26 11:32:11;;;;;;;7.22;1.92;;;;;;;;;;5148243;27;20038;-70
2021/04/26 11:34:50;;;;;;;4.60;1.52;;;;;;;;;;5120509;27;20047;-71
2021/04/26 11:37:25;;;;;;;6.72;1.85;;;;;;;;;;5147473;27;20045;-70
2021/04/26 11:39:53;;;;;;;8.02;1.45;;;;;;;;;;5146049;27;20039;-71
2021/04/26 11:42:24;;;;;;;7.43;1.52;;;;;;;;;;5142990;27;20046;-71
2021/04/26 11:44:50;;;;;;;6.65;1.90;;;;;;;;;;5140366;27;20073;-71
2021/04/26 11:47:17;;;;;;;3.97;1.30;;;;;;;;;;5143200;27;20043;-71
2021/04/26 11:49:48;;;;;;;35.97;4.43;;;;;;;;;;5141424;27;20035;-71
2021/04/26 11:52:17;;;;;;;5.93;1.95;;;;;;;;;;5143392;27;20043;-72
2021/04/26 11:54:50;;;;;;;4.57;1.50;;;;;;;;;;5123916;27;20039;-70
2021/04/26 11:57:21;;;;;;;6.78;1.40;;;;;;;;;;5142078;27;20069;-70
2021/04/26 11:59:53;;;;;;;3.88;1.48;;;;;;;;;;5139109;27;20039;-70
2021/04/26 12:02:39;;;;;;;5.45;1.48;;;;;;;;;;5140319;27;20039;-69
2021/04/26 12:05:16;;;;;;;12.30;1.63;;;;;;;;;;5141417;27;20569;-74
2021/04/26 12:07:43;;;;;;;7.88;1.35;;;;;;;;;;5139823;27;20046;-74
2021/04/26 12:10:11;;;;;;;3.88;1.10;;;;;;;;;;5149703;27;20047;-74
2021/04/26 12:12:37;;;;;;;5.45;1.83;;;;;;;;;;5150670;27;20042;-76
2021/04/26 12:15:06;;;;;;;3.90;0.85;;;;;;;;;;5148094;27;20061;-75
2021/04/26 12:17:34;;;;;;;3.72;1.25;;;;;;;;;;5147282;27;20111;-73
2021/04/26 12:20:01;;;;;;;4.75;1.20;;;;;;;;;;5150496;27;20031;-73
2021/04/26 12:22:33;;;;;;;4.22;1.35;;;;;;;;;;5146960;27;20038;-74
2021/04/26 12:25:01;;;;;;;5.68;1.33;;;;;;;;;;5150035;27;20043;-72
2021/04/26 12:27:27;;;;;;;4.38;1.52;;;;;;;;;;5147427;27;20399;-73
2021/04/26 12:29:54;;;;;;;6.13;1.60;;;;;;;;;;5133701;27;20146;-73
2021/04/26 12:32:26;;;;;;;3.05;1.00;;;;;;;;;;5151131;27;20095;-75
2021/04/26 12:35:00;;;;;;;5.25;1.27;;;;;;;;;;5149157;27;20066;-75
2021/04/26 12:37:34;;;;;;;7.15;1.77;;;;;;;;;;5105429;27;20038;-75
2021/04/26 12:40:11;;;;;;;6.75;0.95;;;;;;;;;;5148340;27;20042;-74
2021/04/26 12:42:37;;;;;;;4.60;1.13;;;;;;;;;;5133325;27;20058;-74
2021/04/26 12:45:10;;;;;;;3.33;1.17;;;;;;;;;;5131935;27;20038;-75
2021/04/26 12:47:46;;;;;;;2.53;1.00;;;;;;;;;;5146599;27;20034;-73
2021/04/26 12:50:17;;;;;;;5.75;1.50;;;;;;;;;;5150558;27;20042;-74
2021/04/26 12:53:02;;;;;;;5.20;1.67;;;;;;;;;;5152252;27;20096;-74
2021/04/26 12:55:28;;;;;;;5.35;1.40;;;;;;;;;;5151716;27;20053;-74
2021/04/26 12:58:04;;;;;;;8.20;1.35;;;;;;;;;;5127368;27;20469;-73
2021/04/26 13:00:57;;;;;;;3.85;1.33;;;;;;;;;;5149636;27;20034;-74
2021/04/26 13:03:31;;;;;;;5.05;1.33;;;;;;;;;;5099592;27;20062;-73
2021/04/26 13:06:08;;;;;;;5.30;1.17;;;;;;;;;;5142187;27;20508;-73
2021/04/26 13:08:35;;;;;;;5.72;1.20;;;;;;;;;;5144152;27;20133;-73
2021/04/26 13:11:02;;;;;;;2.45;1.40;;;;;;;;;;5142613;27;20047;-69
2021/04/26 13:13:29;;;;;;;4.75;1.63;;;;;;;;;;5149298;27;20087;-69
2021/04/26 13:15:55;;;;;;;5.40;1.35;;;;;;;;;;5146822;27;20046;-70
2021/04/26 13:18:23;;;;;;;5.18;1.20;;;;;;;;;;5125405;27;20124;-70
2021/04/26 13:20:50;;;;;;;3.35;1.20;;;;;;;;;;5141278;27;20114;-73
2021/04/26 13:23:21;;;;;;;5.03;1.15;;;;;;;;;;5142907;27;20490;-71
2021/04/26 13:25:48;;;;;;;4.18;1.33;;;;;;;;;;5138280;27;20046;-74
2021/04/26 13:28:28;;;;;;;6.90;1.40;;;;;;;;;;5138413;27;20100;-73
2021/04/26 13:30:56;;;;;;;4.07;1.38;;;;;;;;;;5137176;27;20361;-71
2021/04/26 13:33:22;;;;;;;3.63;1.23;;;;;;;;;;5115795;27;20075;-72
2021/04/26 13:35:48;;;;;;;3.60;1.55;;;;;;;;;;5119312;27;20512;-72
2021/04/26 13:38:15;;;;;;;5.53;1.40;;;;;;;;;;5139168;27;20050;-73
2021/04/26 13:40:41;;;;;;;5.32;1.27;;;;;;;;;;5140654;27;20401;-73
2021/04/26 13:43:08;;;;;;;5.38;1.70;;;;;;;;;;5115934;27;20050;-72
2021/04/26 13:45:34;;;;;;;4.25;1.25;;;;;;;;;;5128841;27;20074;-73
2021/04/26 13:48:00;;;;;;;4.22;1.33;;;;;;;;;;5131797;27;20386;-70
2021/04/26 13:50:27;;;;;;;6.68;1.27;;;;;;;;;;5153648;27;20034;-72
2021/04/26 13:52:53;;;;;;;5.30;1.40;;;;;;;;;;5143071;27;20039;-72
2021/04/26 13:55:19;;;;;;;8.77;1.20;;;;;;;;;;5132923;27;20038;-72
2021/04/26 13:57:46;;;;;;;3.90;1.33;;;;;;;;;;5152015;27;20108;-74
2021/04/26 14:00:13;;;;;;;7.55;1.70;;;;;;;;;;5144679;27;20153;-75
2021/04/26 14:02:39;;;;;;;7.57;1.20;;;;;;;;;;5145088;27;20091;-76
2021/04/26 14:05:05;;;;;;;9.23;1.23;;;;;;;;;;5143795;27;20045;-72
2021/04/26 14:07:31;;;;;;;13.82;2.40;;;;;;;;;;5139326;27;20512;-68
2021/04/26 14:09:58;;;;;;;8.95;1.40;;;;;;;;;;5128399;27;20431;-72
2021/04/26 14:12:24;;;;;;;4.60;1.23;;;;;;;;;;5151126;27;20498;-67
2021/04/26 14:14:50;;;;;;;10.10;1.27;;;;;;;;;;5145940;27;20039;-66
2021/04/26 14:17:17;;;;;;;8.88;1.38;;;;;;;;;;5141197;27;20613;-69
2021/04/26 14:19:43;;;;;;;6.45;1.25;;;;;;;;;;5144386;27;20121;-67
2021/04/26 14:22:09;;;;;;;57.15;3.92;;;;;;;;;;5117732;27;20101;-68
2021/04/26 14:24:35;;;;;;;75.57;4.82;;;;;;;;;;5144570;27;20742;-69
2021/04/26 14:27:01;;;;;;;7.40;1.70;;;;;;;;;;5147808;27;20462;-69
2021/04/26 14:29:28;;;;;;;5.00;1.40;;;;;;;;;;5151489;27;20042;-68
2021/04/26 14:31:54;;;;;;;4.85;1.20;;;;;;;;;;5148524;27;20074;-69
2021/04/26 14:34:21;;;;;;;5.05;1.45;;;;;;;;;;5149025;27;20473;-69
2021/04/26 14:36:47;;;;;;;10.82;2.25;;;;;;;;;;5146859;27;20094;-68
2021/04/26 14:39:13;;;;;;;4.47;1.27;;;;;;;;;;5127739;27;20038;-74
2021/04/26 14:41:40;;;;;;;4.93;1.48;;;;;;;;;;5120952;27;20042;-71
2021/04/26 14:44:06;;;;;;;7.57;1.75;;;;;;;;;;5149287;27;20074;-69
2021/04/26 14:46:33;;;;;;;3.05;1.20;;;;;;;;;;5145458;27;20049;-70
2021/04/26 14:48:59;;;;;;;2.45;1.20;;;;;;;;;;5140875;27;20035;-72